ラスベガス の空港の天気 - METARとTAF

マッカラン国際空港 ( KLAS / LAS ) - アメリカ ネバダ州ラスベガス
飛行場実況気象(Metar)
観測時間12/18 00:56 PST (12/18 08:56 UTC)
風向・風速東北東 4m/s
視程10km以上
天気現象
少しの雲 雲底高度 7620m
気温7.8℃
湿度32%
気圧1021.4hPa
METARKLAS 180856Z 06008KT 10SM FEW250 08/M08 A3017 RMK AO2 SLP214 T00781078 51005
過去の天気等 Google飛行場航空写真 Wunderground天気予報

過去48時間のMETAR

飛行場予報(TAF)
発表時間: 12/18 00:53 PST (12/18 08:53 UTC)
予報対象時間: 18日1時 PST ~ 19日4時 PST
風向・風速北北東 4m/s
視程10km以上
少しの雲 雲底高度 7,620m
18日4時 PST から
風向・風速不定 3m/s
視程10km以上
全天の4割程度の雲 雲底高度 7,620m
18日19時 PST から
風向・風速南西 3m/s
視程10km以上
全天の4割程度の雲 雲底高度 7,620m
KLAS 180853Z 1809/1912 03008KT P6SM FEW250
FM181200 VRB05KT P6SM SCT250
FM190300 22006KT P6SM SCT250